Time;durP1;ratioP1;P1;durP2;ratioP2;P2;SDS_P1;SDS_P2;PMS_P1;PMS_P2;Temp;Humidity;BMP_temperature;BMP_pressure;BME280_temperature;BME280_humidity;BME280_pressure;Samples;Min_cycle;Max_cycle;Signal;HPM_P1;HPM_P2
2022/06/12 00:01:53;;;;;;;;;;;;;;;-144.99;77.50;52301.34;5065688;28;19974;-63
2022/06/12 00:04:19;;;;;;;;;;;;;;;-144.99;77.57;52329.88;5063175;28;19924;-63
2022/06/12 00:06:48;;;;;;;;;;;;;;;-144.99;78.43;52317.66;5067032;28;20378;-62
2022/06/12 00:09:15;;;;;;;;;;;;;;;-144.99;79.53;52309.50;5068810;28;19998;-61
2022/06/12 00:11:44;;;;;;;;;;;;;;;-144.99;80.02;52317.66;5066590;28;19927;-57
2022/06/12 00:14:11;;;;;;;;;;;;;;;-144.99;79.93;52317.66;5069915;28;20392;-57
2022/06/12 00:16:41;;;;;;;;;;;;;;;-144.99;80.57;52329.88;5067352;28;19920;-58
2022/06/12 00:19:07;;;;;;;;;;;;;;;-144.99;79.94;52325.81;5066683;28;19931;-58
2022/06/12 00:21:34;;;;;;;;;;;;;;;-144.99;79.76;52325.81;5060513;28;20019;-58
2022/06/12 00:24:04;;;;;;;;;;;;;;;-144.99;80.61;52295.22;5066592;28;19972;-58
2022/06/12 00:26:33;;;;;;;;;;;;;;;-144.99;82.20;52342.09;5065102;28;19921;-58
2022/06/12 00:29:00;;;;;;;;;;;;;;;-144.99;82.90;52366.56;5068221;28;19928;-58
2022/06/12 00:31:27;;;;;;;;;;;;;;;-144.99;84.11;52344.16;5060361;28;20296;-59
2022/06/12 00:33:54;;;;;;;;;;;;;;;-144.99;84.51;52358.41;5060966;28;19951;-58
2022/06/12 00:36:21;;;;;;;;;;;;;;;-144.99;85.40;52317.66;5065862;28;20094;-58
2022/06/12 00:38:47;;;;;;;;;;;;;;;-144.99;86.97;52317.66;5069185;28;19924;-58
2022/06/12 00:41:15;;;;;;;;;;;;;;;-144.99;86.97;52325.81;5056880;28;20382;-65
2022/06/12 00:43:41;;;;;;;;;;;;;;;-144.99;87.59;52342.09;5068787;28;19931;-65
2022/06/12 00:46:08;;;;;;;;;;;;;;;-144.99;87.25;52333.94;5066262;28;20015;-65
2022/06/12 00:48:37;;;;;;;;;;;;;;;-144.99;87.63;52350.25;5060872;28;20020;-65
2022/06/12 00:51:05;;;;;;;;;;;;;;;-144.99;87.84;52354.34;5061565;28;19921;-64
2022/06/12 00:53:33;;;;;;;;;;;;;;;-144.99;88.50;52321.72;5058747;28;19927;-65
2022/06/12 00:56:06;;;;;;;;;;;;;;;-144.99;88.90;52325.81;5068756;28;19966;-65
2022/06/12 00:58:37;;;;;;;;;;;;;;;-144.99;89.50;52315.59;5063231;28;20645;-64
2022/06/12 01:01:05;;;;;;;;;;;;;;;-144.99;89.82;52313.56;5069682;28;20011;-64
2022/06/12 01:06:33;;;;;;;;;;;;;;;-144.99;90.25;52323.75;5068962;28;20330;-64
2022/06/12 01:08:58;;;;;;;;;;;;;;;-144.99;90.28;52329.88;5069973;28;19964;-64
2022/06/12 01:11:25;;;;;;;;;;;;;;;-144.99;90.46;52309.50;5070059;28;19971;-64
2022/06/12 01:13:53;;;;;;;;;;;;;;;-144.99;89.93;52313.56;5072782;28;20344;-62
2022/06/12 01:16:21;;;;;;;;;;;;;;;-144.99;90.36;52293.19;5070678;28;20401;-62
2022/06/12 01:18:49;;;;;;;;;;;;;;;-144.99;90.99;52333.94;5072619;28;19956;-63
2022/06/12 01:21:47;;;;;;;;;;;;;;;-144.99;91.11;52317.66;5068720;28;19928;-65
2022/06/12 01:24:21;;;;;;;;;;;;;;;-144.99;90.67;52350.25;5069128;28;20010;-66
2022/06/12 01:27:05;;;;;;;;;;;;;;;-144.99;90.93;52356.38;5068718;28;19928;-66
2022/06/12 01:29:36;;;;;;;;;;;;;;;-144.99;91.18;52319.69;5065795;28;20404;-65
2022/06/12 01:32:04;;;;;;;;;;;;;;;-144.99;91.13;52305.41;5069191;28;19920;-64
2022/06/12 01:34:35;;;;;;;;;;;;;;;-144.99;90.66;52313.56;5063928;28;20019;-63
2022/06/12 01:37:07;;;;;;;;;;;;;;;-144.99;90.88;52313.56;5063769;28;20020;-64
2022/06/12 01:39:37;;;;;;;;;;;;;;;-144.99;90.69;52317.66;5068410;28;20374;-64
2022/06/12 01:42:12;;;;;;;;;;;;;;;-144.99;90.23;52333.94;5071881;28;20448;-61
2022/06/12 01:44:43;;;;;;;;;;;;;;;-144.99;89.98;52317.66;5067086;28;20378;-61
2022/06/12 01:47:14;;;;;;;;;;;;;;;-144.99;91.19;52311.53;5070641;28;19924;-61
2022/06/12 01:49:45;;;;;;;;;;;;;;;-144.99;91.46;52313.56;5061950;28;19920;-63
2022/06/12 01:52:21;;;;;;;;;;;;;;;-144.99;91.55;52317.66;5066630;28;19920;-62
2022/06/12 01:54:49;;;;;;;;;;;;;;;-144.99;92.17;52313.56;5071903;28;19920;-64
2022/06/12 01:57:17;;;;;;;;;;;;;;;-144.99;92.35;52346.19;5066889;28;20308;-64
2022/06/12 01:59:50;;;;;;;;;;;;;;;-144.99;92.33;52280.97;5071931;28;19981;-66
2022/06/12 02:02:19;;;;;;;;;;;;;;;-144.99;92.39;52285.03;5068596;28;20184;-64
2022/06/12 02:04:50;;;;;;;;;;;;;;;-144.99;92.37;52338.03;5067655;28;19951;-65
2022/06/12 02:07:20;;;;;;;;;;;;;;;-144.99;92.42;52362.50;5069573;28;20007;-65
2022/06/12 02:09:50;;;;;;;;;;;;;;;-144.99;93.44;52336.00;5064915;28;20018;-66
2022/06/12 02:15:07;;;;;;;;;;;;;;;-144.99;94.10;52297.25;5071134;28;19978;-62
2022/06/12 02:17:35;;;;;;;;;;;;;;;-144.99;94.11;52313.56;5071520;28;19990;-64
2022/06/12 02:20:02;;;;;;;;;;;;;;;-144.99;94.83;52289.13;5068720;28;20022;-65
2022/06/12 02:22:31;;;;;;;;;;;;;;;-144.99;94.90;52315.59;5070615;28;20021;-63
2022/06/12 02:25:01;;;;;;;;;;;;;;;-144.99;95.56;52333.94;5069476;28;20003;-63
2022/06/12 02:27:32;;;;;;;;;;;;;;;-144.99;96.00;52333.94;5063694;28;20019;-63
2022/06/12 02:30:01;;;;;;;;;;;;;;;-144.99;96.30;52329.88;5070240;28;19963;-63
2022/06/12 02:32:33;;;;;;;;;;;;;;;-144.99;96.67;52350.25;5059541;28;20374;-63
2022/06/12 02:35:01;;;;;;;;;;;;;;;-144.99;96.47;52301.34;5066207;28;20397;-66
2022/06/12 02:37:34;;;;;;;;;;;;;;;-144.99;96.50;52346.19;5063320;28;19938;-63
2022/06/12 02:40:03;;;;;;;;;;;;;;;-144.99;96.28;52342.09;5068238;28;20237;-62
2022/06/12 02:42:32;;;;;;;;;;;;;;;-144.99;96.58;52313.56;5064031;28;19928;-62
2022/06/12 02:45:01;;;;;;;;;;;;;;;-144.99;97.57;52362.50;5069612;28;19971;-62
2022/06/12 02:47:31;;;;;;;;;;;;;;;-144.99;98.76;52325.81;5060858;28;20023;-66
2022/06/12 02:49:59;;;;;;;;;;;;;;;-144.99;99.32;52313.56;5061984;28;19956;-65
2022/06/12 02:52:29;;;;;;;;;;;;;;;-144.99;99.57;52309.50;5065188;28;20293;-64
2022/06/12 02:55:04;;;;;;;;;;;;;;;-144.99;99.33;52346.19;5070620;28;19920;-65
2022/06/12 02:57:32;;;;;;;;;;;;;;;-144.99;98.48;52350.25;5066743;28;20007;-65
2022/06/12 03:00:06;;;;;;;;;;;;;;;-144.99;98.06;52342.09;5070288;28;20381;-64
2022/06/12 03:02:36;;;;;;;;;;;;;;;-144.99;97.42;52319.69;5060727;28;19921;-67
2022/06/12 03:05:07;;;;;;;;;;;;;;;-144.99;97.01;52285.03;5065474;28;19971;-66
2022/06/12 03:07:34;;;;;;;;;;;;;;;-144.99;97.34;52350.25;5060461;28;19920;-66
2022/06/12 03:10:09;;;;;;;;;;;;;;;-144.99;97.90;52311.53;5062018;28;20007;-64
2022/06/12 03:12:37;;;;;;;;;;;;;;;-144.99;97.42;52297.25;5070022;28;20109;-62
2022/06/12 03:15:09;;;;;;;;;;;;;;;-144.99;97.81;52350.25;5069969;28;19920;-63
2022/06/12 03:17:37;;;;;;;;;;;;;;;-144.99;97.59;52321.72;5070529;28;19966;-62
2022/06/12 03:20:03;;;;;;;;;;;;;;;-144.99;97.62;52321.72;5066806;28;20023;-62
2022/06/12 03:22:37;;;;;;;;;;;;;;;-144.99;97.41;52344.16;5082636;22;20510;-67
2022/06/12 03:25:12;;;;;;;;;;;;;;;-144.99;97.41;52325.81;5071418;28;20379;-67
2022/06/12 03:27:49;;;;;;;;;;;;;;;-144.99;97.19;52325.81;5066415;28;20352;-67
2022/06/12 03:30:19;;;;;;;;;;;;;;;-144.99;96.98;52333.94;5063159;28;20392;-67
2022/06/12 03:32:52;;;;;;;;;;;;;;;-144.99;96.58;52333.94;5063622;28;19943;-68
2022/06/12 03:35:22;;;;;;;;;;;;;;;-144.99;96.65;52305.41;5058219;28;19928;-67
2022/06/12 03:37:50;;;;;;;;;;;;;;;-144.99;95.90;52321.72;5044911;28;19928;-67
2022/06/12 03:40:24;;;;;;;;;;;;;;;-144.99;95.78;52293.19;5058881;28;19990;-68
2022/06/12 03:42:54;;;;;;;;;;;;;;;-144.99;95.47;52321.72;5056964;28;19920;-67
2022/06/12 03:45:24;;;;;;;;;;;;;;;-144.99;95.66;52348.22;5058266;28;20361;-67
2022/06/12 03:47:54;;;;;;;;;;;;;;;-144.99;95.75;52333.94;5052848;28;20377;-67
2022/06/12 03:50:26;;;;;;;;;;;;;;;-144.99;95.78;52352.28;5062103;28;19982;-67
2022/06/12 03:52:55;;;;;;;;;;;;;;;-144.99;95.36;52313.56;5057871;28;19947;-68
2022/06/12 03:57:50;;;;;;;;;;;;;;;-144.99;96.14;52340.06;5055726;28;19994;-67
2022/06/12 03:58:12;;;;;;;;;;;;;;;-144.99;96.46;52297.25;5058182;28;19924;-67
2022/06/12 04:00:40;;;;;;;;;;;;;;;-144.99;96.23;52338.03;5063450;28;20079;-67
2022/06/12 04:03:11;;;;;;;;;;;;;;;-144.99;96.02;52333.94;5058514;28;20179;-67
2022/06/12 04:05:39;;;;;;;;;;;;;;;-144.99;95.44;52354.34;5057670;28;20397;-67
2022/06/12 04:08:07;;;;;;;;;;;;;;;-144.99;95.20;52374.72;5054707;28;20008;-67
2022/06/12 04:10:36;;;;;;;;;;;;;;;-144.99;95.80;52317.66;5069410;28;19967;-68
2022/06/12 04:13:04;;;;;;;;;;;;;;;-144.99;95.93;52321.72;5061324;28;19983;-68
2022/06/12 04:15:32;;;;;;;;;;;;;;;-144.99;96.74;52283.00;5062905;28;20301;-68
2022/06/12 04:17:59;;;;;;;;;;;;;;;-144.99;97.44;52305.41;5064574;28;19978;-68
2022/06/12 04:20:30;;;;;;;;;;;;;;;-144.99;97.46;52309.50;5059902;28;19921;-68
2022/06/12 04:23:00;;;;;;;;;;;;;;;-144.99;97.72;52272.81;5055999;28;20000;-65
2022/06/12 04:25:35;;;;;;;;;;;;;;;-144.99;98.74;52293.19;5058635;28;20020;-65
2022/06/12 04:28:02;;;;;;;;;;;;;;;-144.99;100.00;52329.88;5058317;28;20439;-65
2022/06/12 04:30:30;;;;;;;;;;;;;;;-144.99;99.83;52350.25;5053222;28;19924;-65
2022/06/12 04:33:09;;;;;;;;;;;;;;;-144.99;99.77;52317.66;5056183;28;19920;-65
2022/06/12 04:35:42;;;;;;;;;;;;;;;-144.99;99.01;52325.81;5050437;28;20014;-65
2022/06/12 04:38:08;;;;;;;;;;;;;;;-144.99;99.03;52297.25;5054680;28;19998;-65
2022/06/12 04:40:35;;;;;;;;;;;;;;;-144.99;99.21;52301.34;5057660;28;19942;-65
2022/06/12 04:43:02;;;;;;;;;;;;;;;-144.99;99.20;52309.50;5054429;28;19929;-70
2022/06/12 04:45:28;;;;;;;;;;;;;;;-144.99;100.00;52344.16;5063332;28;19920;-70
2022/06/12 04:47:55;;;;;;;;;;;;;;;-144.99;99.50;52289.13;5059069;28;20250;-70
2022/06/12 04:50:21;;;;;;;;;;;;;;;-144.99;98.76;52333.94;5062036;28;19976;-71
2022/06/12 04:52:49;;;;;;;;;;;;;;;-144.99;98.39;52317.66;5057011;28;19952;-70
2022/06/12 04:55:16;;;;;;;;;;;;;;;-144.99;97.46;52278.91;5057816;28;19924;-72
2022/06/12 04:57:42;;;;;;;;;;;;;;;-144.99;96.33;52305.41;5063977;28;19921;-72
2022/06/12 05:00:09;;;;;;;;;;;;;;;-144.99;95.58;52323.75;5083208;28;19924;-72
2022/06/12 05:02:36;;;;;;;;;;;;;;;-144.99;94.79;52285.03;5073288;28;19921;-72
2022/06/12 05:05:02;;;;;;;;;;;;;;;-144.99;93.73;52289.13;5081843;28;19921;-72
2022/06/12 05:07:28;;;;;;;;;;;;;;;-144.99;93.04;52264.66;5072567;28;19929;-69
2022/06/12 05:09:56;;;;;;;;;;;;;;;-144.99;92.44;52297.25;5076396;28;20297;-68
2022/06/12 05:12:23;;;;;;;;;;;;;;;-144.99;92.45;52276.88;5071721;28;19920;-68
2022/06/12 05:14:49;;;;;;;;;;;;;;;-144.99;91.69;52240.19;5070725;28;20034;-68
2022/06/12 05:17:17;;;;;;;;;;;;;;;-144.99;91.12;52266.69;5058384;28;19959;-67
2022/06/12 05:19:44;;;;;;;;;;;;;;;-144.99;89.59;52323.75;5063001;28;19921;-67
2022/06/12 05:22:11;;;;;;;;;;;;;;;-144.99;88.65;52285.03;5049724;28;19979;-67
2022/06/12 05:24:39;;;;;;;;;;;;;;;-144.99;87.44;52285.03;5065169;28;19927;-67
2022/06/12 05:27:09;;;;;;;;;;;;;;;-144.99;86.30;52276.88;5058087;28;20332;-69
2022/06/12 05:29:37;;;;;;;;;;;;;;;-144.99;85.35;52268.72;5059367;28;20361;-71
2022/06/12 05:32:04;;;;;;;;;;;;;;;-144.99;84.42;52297.25;5064709;28;19960;-71
2022/06/12 05:34:32;;;;;;;;;;;;;;;-144.99;83.39;52260.56;5066009;28;19920;-71
2022/06/12 05:36:58;;;;;;;;;;;;;;;-144.99;81.31;52280.97;5054030;28;19925;-71
2022/06/12 05:39:25;;;;;;;;;;;;;;;-144.99;81.28;52248.34;5072394;28;19932;-71
2022/06/12 05:41:52;;;;;;;;;;;;;;;-144.99;80.64;52268.72;5053738;28;19960;-71
2022/06/12 05:44:20;;;;;;;;;;;;;;;-144.99;80.33;52256.50;5067001;28;19920;-70
2022/06/12 05:46:47;;;;;;;;;;;;;;;-144.99;79.97;52307.47;5069409;28;19921;-71
2022/06/12 05:49:15;;;;;;;;;;;;;;;-144.99;79.41;52280.97;5066848;28;19920;-70
2022/06/12 05:51:41;;;;;;;;;;;;;;;-144.99;77.37;52256.50;5061596;28;19999;-70
2022/06/12 05:54:08;;;;;;;;;;;;;;;-144.99;76.80;52244.28;5072071;28;19928;-70
2022/06/12 05:56:34;;;;;;;;;;;;;;;-144.99;76.07;52280.97;5067810;28;20000;-72
2022/06/12 05:59:01;;;;;;;;;;;;;;;-144.99;75.67;52236.13;5057947;28;20388;-72
2022/06/12 06:01:29;;;;;;;;;;;;;;;-144.99;74.83;52280.97;5064654;28;19990;-71
2022/06/12 06:03:56;;;;;;;;;;;;;;;-144.99;74.42;52264.66;5053430;28;19967;-70
2022/06/12 06:06:24;;;;;;;;;;;;;;;-144.99;73.50;52223.88;5062844;28;19956;-67
2022/06/12 06:08:51;;;;;;;;;;;;;;;-144.99;73.31;52268.72;5057312;28;19974;-71
2022/06/12 06:11:17;;;;;;;;;;;;;;;-144.99;70.66;52227.97;5062711;28;19960;-70
2022/06/12 06:13:45;;;;;;;;;;;;;;;-144.99;69.58;52236.13;5063374;28;19979;-71
2022/06/12 06:16:11;;;;;;;;;;;;;;;-144.99;70.57;52272.81;5057220;28;19968;-71
2022/06/12 06:18:40;;;;;;;;;;;;;;;-144.99;70.36;52264.66;5064646;28;20024;-71
2022/06/12 06:21:08;;;;;;;;;;;;;;;-144.99;67.82;52264.66;5060149;28;19936;-69
2022/06/12 06:23:35;;;;;;;;;;;;;;;-144.99;66.90;52256.50;5055591;28;19927;-69
2022/06/12 06:26:01;;;;;;;;;;;;;;;-144.99;65.52;52242.22;5065488;28;19967;-69
2022/06/12 06:28:28;;;;;;;;;;;;;;;-144.99;65.16;52256.50;5061760;28;20019;-69
2022/06/12 06:30:54;;;;;;;;;;;;;;;-144.99;65.00;52199.44;5067061;28;19955;-69
2022/06/12 06:33:21;;;;;;;;;;;;;;;-144.99;65.01;52240.19;5060121;28;19966;-66
2022/06/12 06:35:49;;;;;;;;;;;;;;;-144.99;65.07;52234.09;5061328;28;20274;-67
2022/06/12 06:38:16;;;;;;;;;;;;;;;-144.99;65.32;52244.28;5056370;28;19935;-69
2022/06/12 06:40:43;;;;;;;;;;;;;;;-144.99;63.77;52219.81;5065913;28;19920;-69
2022/06/12 06:43:09;;;;;;;;;;;;;;;-144.99;62.97;52219.81;5053169;28;19927;-69
2022/06/12 06:48:21;;;;;;;;;;;;;;;-144.99;61.81;52268.72;5064273;28;19943;-68
2022/06/12 06:50:49;;;;;;;;;;;;;;;-144.99;61.40;52262.63;5050710;28;20362;-69
2022/06/12 06:53:16;;;;;;;;;;;;;;;-144.99;61.25;52262.63;5057561;28;19963;-69
2022/06/12 06:55:43;;;;;;;;;;;;;;;-144.99;59.15;52260.56;5057674;28;19920;-69
2022/06/12 06:58:11;;;;;;;;;;;;;;;-144.99;59.89;52219.81;5054474;28;20340;-71
2022/06/12 07:00:39;;;;;;;;;;;;;;;-144.99;59.24;52211.66;5062697;28;20344;-69
2022/06/12 07:03:06;;;;;;;;;;;;;;;-144.99;59.24;52215.75;5058881;28;19978;-70
2022/06/12 07:05:33;;;;;;;;;;;;;;;-144.99;59.58;52252.44;5062400;28;20463;-69
2022/06/12 07:08:01;;;;;;;;;;;;;;;-144.99;59.09;52213.69;5053673;28;20373;-69
2022/06/12 07:10:28;;;;;;;;;;;;;;;-144.99;58.27;52215.75;5067085;28;19921;-70
2022/06/12 07:12:56;;;;;;;;;;;;;;;-144.99;58.11;52219.81;5060579;28;19978;-71
2022/06/12 07:15:23;;;;;;;;;;;;;;;-144.99;57.91;52219.81;5063902;28;19936;-72
2022/06/12 07:17:50;;;;;;;;;;;;;;;-144.99;57.52;52207.59;5065921;28;20377;-71
2022/06/12 07:20:18;;;;;;;;;;;;;;;-144.99;57.85;52181.09;5058459;28;20361;-72
2022/06/12 07:22:44;;;;;;;;;;;;;;;-144.99;56.12;52219.81;5059527;28;20010;-72
2022/06/12 07:25:13;;;;;;;;;;;;;;;-144.99;56.35;52223.88;5059725;28;19924;-69
2022/06/12 07:27:40;;;;;;;;;;;;;;;-144.99;56.21;52189.25;5059135;28;20633;-69
2022/06/12 07:30:08;;;;;;;;;;;;;;;-144.99;54.72;52223.88;5059876;28;19924;-70
2022/06/12 07:32:35;;;;;;;;;;;;;;;-144.99;53.87;52211.66;5057626;28;20337;-69
2022/06/12 07:35:01;;;;;;;;;;;;;;;-144.99;52.88;52207.59;5053805;28;20568;-69
2022/06/12 07:37:28;;;;;;;;;;;;;;;-144.99;53.50;52234.09;5056446;28;20019;-71
2022/06/12 07:39:54;;;;;;;;;;;;;;;-144.99;52.16;52232.03;5062104;28;20309;-69
2022/06/12 07:42:22;;;;;;;;;;;;;;;-144.99;51.45;52227.97;5052463;28;20512;-68
2022/06/12 07:44:49;;;;;;;;;;;;;;;-144.99;50.50;52203.50;5061380;28;19921;-69
2022/06/12 07:47:15;;;;;;;;;;;;;;;-144.99;50.08;52183.13;5058673;28;20050;-69
2022/06/12 07:49:42;;;;;;;;;;;;;;;-144.99;50.00;52211.66;5058828;28;19971;-69
2022/06/12 07:52:10;;;;;;;;;;;;;;;-144.99;48.48;52191.28;5052596;28;19927;-69
2022/06/12 07:54:37;;;;;;;;;;;;;;;-144.99;47.62;52174.97;5054192;28;19931;-69
2022/06/12 07:57:04;;;;;;;;;;;;;;;-144.99;48.64;52177.00;5060876;28;19977;-68
2022/06/12 07:59:32;;;;;;;;;;;;;;;-144.99;47.50;52209.63;5054473;28;19924;-69
2022/06/12 08:01:59;;;;;;;;;;;;;;;-144.99;47.46;52195.34;5061795;28;20311;-69
2022/06/12 08:04:26;;;;;;;;;;;;;;;-144.99;47.83;52158.66;5059071;28;19976;-68
2022/06/12 08:06:53;;;;;;;;;;;;;;;-144.99;47.67;52183.13;5062338;28;20024;-69
2022/06/12 08:09:19;;;;;;;;;;;;;;;-144.99;46.85;52199.44;5058786;28;19921;-69
2022/06/12 08:11:48;;;;;;;;;;;;;;;-144.99;47.52;52179.06;5060380;28;19920;-69
2022/06/12 08:14:15;;;;;;;;;;;;;;;-144.99;47.04;52193.31;5057754;28;19943;-70
2022/06/12 08:16:43;;;;;;;;;;;;;;;-144.99;46.76;52193.31;5054458;28;19975;-72
2022/06/12 08:21:50;;;;;;;;;;;;;;;-144.99;46.03;52195.34;5048852;28;20270;-72
2022/06/12 08:24:17;;;;;;;;;;;;;;;-144.99;46.73;52164.78;5053682;28;19925;-72
2022/06/12 08:26:43;;;;;;;;;;;;;;;-144.99;46.71;52142.38;5062314;28;20366;-72
2022/06/12 08:29:12;;;;;;;;;;;;;;;-144.99;46.39;52146.44;5052407;28;19928;-72
2022/06/12 08:31:39;;;;;;;;;;;;;;;-144.99;45.41;52162.75;5060282;28;19920;-72
2022/06/12 08:34:09;;;;;;;;;;;;;;;-144.99;45.22;52154.59;5056967;28;20396;-73
2022/06/12 08:36:37;;;;;;;;;;;;;;;-144.99;44.99;52179.06;5057018;28;19921;-73
2022/06/12 08:39:03;;;;;;;;;;;;;;;-144.99;45.50;52154.59;5065251;28;19920;-73
2022/06/12 08:41:35;;;;;;;;;;;;;;;-144.99;44.87;52197.41;5049444;28;19967;-72
2022/06/12 08:44:05;;;;;;;;;;;;;;;-144.99;44.32;52113.84;5056354;28;20015;-73
2022/06/12 08:46:36;;;;;;;;;;;;;;;-144.99;44.32;52166.81;5055203;28;20019;-71
2022/06/12 08:49:06;;;;;;;;;;;;;;;-144.99;42.81;52183.13;5060450;28;19959;-73
2022/06/12 08:51:37;;;;;;;;;;;;;;;-144.99;43.13;52146.44;5050936;28;19968;-65
2022/06/12 08:54:09;;;;;;;;;;;;;;;-144.99;42.86;52158.66;5060653;28;20003;-65
2022/06/12 08:56:39;;;;;;;;;;;;;;;-144.99;43.14;52168.84;5049256;28;19925;-66
2022/06/12 08:59:09;;;;;;;;;;;;;;;-144.99;43.12;52121.97;5052852;28;19920;-65
2022/06/12 09:01:41;;;;;;;;;;;;;;;-144.99;42.86;52166.81;5060582;28;19968;-66
2022/06/12 09:04:09;;;;;;;;;;;;;;;-144.99;43.21;52117.91;5055496;28;20352;-66
2022/06/12 09:06:40;;;;;;;;;;;;;;;-144.99;43.59;52162.75;5063514;28;19924;-65
2022/06/12 09:09:12;;;;;;;;;;;;;;;-144.99;42.30;52154.59;5053301;28;19959;-65
2022/06/12 09:11:41;;;;;;;;;;;;;;;-144.99;42.35;52154.59;5060894;28;19936;-65
2022/06/12 09:14:15;;;;;;;;;;;;;;;-144.99;42.67;52134.22;5050138;28;20313;-65
2022/06/12 09:16:47;;;;;;;;;;;;;;;-144.99;42.36;52154.59;5043489;28;19924;-65
2022/06/12 09:19:22;;;;;;;;;;;;;;;-144.99;42.58;52121.97;5060911;28;19920;-65
2022/06/12 09:21:55;;;;;;;;;;;;;;;-144.99;42.43;52130.13;5058701;28;19963;-65
2022/06/12 09:24:27;;;;;;;;;;;;;;;-144.99;42.26;52146.44;5047406;28;20368;-65
2022/06/12 09:26:58;;;;;;;;;;;;;;;-144.99;42.51;52162.75;4725812;22;9999935;-66
2022/06/12 09:29:32;;;;;;;;;;;;;;;-144.99;42.84;52142.38;5063456;28;19940;-65
2022/06/12 09:32:02;;;;;;;;;;;;;;;-144.99;42.08;52121.97;5064242;28;19924;-68
2022/06/12 09:34:33;;;;;;;;;;;;;;;-144.99;42.15;52134.22;5060938;28;20035;-65
2022/06/12 09:40:02;;;;;;;;;;;;;;;-144.99;42.87;52126.06;5062621;28;19947;-66
2022/06/12 09:42:37;;;;;;;;;;;;;;;-144.99;42.26;52154.59;5062610;28;19935;-67
2022/06/12 09:45:08;;;;;;;;;;;;;;;-144.99;42.61;52134.22;5064983;28;19991;-67
2022/06/12 09:47:39;;;;;;;;;;;;;;;-144.99;42.55;52117.91;5062708;28;20359;-67
2022/06/12 09:50:08;;;;;;;;;;;;;;;-144.99;43.11;52154.59;5062322;28;20280;-70
2022/06/12 09:52:46;;;;;;;;;;;;;;;-144.99;43.51;52117.91;5059954;28;19985;-67
2022/06/12 09:55:15;;;;;;;;;;;;;;;-144.99;44.07;52113.84;5055296;28;20404;-70
2022/06/12 09:57:44;;;;;;;;;;;;;;;-144.99;43.23;52113.84;5063357;28;20043;-70
2022/06/12 10:00:16;;;;;;;;;;;;;;;-144.99;43.14;52099.56;5065157;28;20019;-68
2022/06/12 10:02:47;;;;;;;;;;;;;;;-144.99;42.41;52126.06;5064798;28;19979;-67
2022/06/12 10:05:15;;;;;;;;;;;;;;;-144.99;43.08;52093.44;5059963;28;20029;-67
2022/06/12 10:07:47;;;;;;;;;;;;;;;-144.99;42.56;52130.13;5068029;28;19985;-65
2022/06/12 10:10:17;;;;;;;;;;;;;;;-144.99;41.41;52101.59;5068552;28;20367;-65
2022/06/12 10:12:45;;;;;;;;;;;;;;;-144.99;40.08;52126.06;5067048;28;20535;-65
2022/06/12 10:15:14;;;;;;;;;;;;;;;-144.99;39.93;52150.53;5066236;28;20368;-67
2022/06/12 10:17:45;;;;;;;;;;;;;;;-144.99;40.38;52103.66;5069417;28;20431;-67
2022/06/12 10:20:14;;;;;;;;;;;;;;;-144.99;40.25;52130.13;5068394;28;19928;-67
2022/06/12 10:22:43;;;;;;;;;;;;;;;-144.99;39.53;52081.22;5066292;28;20381;-67
2022/06/12 10:25:16;;;;;;;;;;;;;;;-144.99;40.92;52107.72;5069144;28;19993;-67
2022/06/12 10:27:45;;;;;;;;;;;;;;;-144.99;39.26;52146.44;5061987;28;19931;-67
2022/06/12 10:30:23;;;;;;;;;;;;;;;-144.99;40.41;52150.53;5061689;28;19934;-66
2022/06/12 10:32:52;;;;;;;;;;;;;;;-144.99;40.90;52146.44;5064437;28;19924;-67
2022/06/12 10:35:21;;;;;;;;;;;;;;;-144.99;40.66;52085.31;5064395;28;20427;-67
2022/06/12 10:37:48;;;;;;;;;;;;;;;-144.99;39.38;52099.56;5060651;28;20397;-66
2022/06/12 10:40:18;;;;;;;;;;;;;;;-144.99;39.39;52054.72;5065403;28;19924;-67
2022/06/12 10:42:48;;;;;;;;;;;;;;;-144.99;39.13;52105.69;5064346;28;19924;-67
2022/06/12 10:45:25;;;;;;;40.05;37.05;;;;;;;-144.99;39.84;52097.53;5062647;28;24529;-67
2022/06/12 10:47:54;;;;;;;;;;;;;;;-144.99;39.69;52154.59;5064863;28;20418;-66
2022/06/12 10:50:26;;;;;;;;;;;;;;;-144.99;40.12;52166.81;5062727;28;19968;-66
2022/06/12 10:52:55;;;;;;;;;;;;;;;-144.99;41.18;52134.22;5062870;28;19924;-66
2022/06/12 10:55:28;;;;;;;;;;;;;;;-144.99;42.18;52146.44;5061475;28;20308;-66
2022/06/12 10:58:01;;;;;;;;;;;;;;;-144.99;41.93;52134.22;5056928;28;19952;-66
2022/06/12 11:00:31;;;;;;;;;;;;;;;-144.99;42.02;52097.53;5063166;28;19924;-66
2022/06/12 11:03:05;;;;;;;;;;;;;;;-144.99;41.50;52085.31;5065782;28;20003;-67
2022/06/12 11:05:47;;;;;;;;;;;;;;;-144.99;41.31;52044.53;5060615;28;20381;-65
2022/06/12 11:08:26;;;;;;;;;;;;;;;-144.99;39.88;52081.22;5064972;28;19987;-66
2022/06/12 11:11:03;;;;;;;;;;;;;;;-144.99;40.22;52062.88;5066938;28;20176;-68
2022/06/12 11:13:42;;;;;;;;;;;;;;;-144.99;40.16;52109.75;5063670;28;20005;-69
2022/06/12 11:16:16;;;;;;;;;;;;;;;-144.99;39.92;52130.13;5067986;28;19978;-67
2022/06/12 11:18:56;;;;;;;;;;;;;;;-144.99;39.65;52077.16;5056297;28;19988;-68
2022/06/12 11:21:29;;;;;;;;;;;;;;;-144.99;39.37;52073.06;5050938;28;20007;-67
2022/06/12 11:24:03;;;;;;;;;;;;;;;-144.99;39.10;52069.00;5050294;28;19943;-68
2022/06/12 11:26:44;;;;;;;;;;;;;;;-144.99;39.94;52036.38;5049430;28;19924;-67
2022/06/12 11:29:20;;;;;;;;;;;;;;;-144.99;38.37;52016.00;5053661;28;19930;-67
2022/06/12 11:31:53;;;;;;;;;;;;;;;-144.99;38.81;52105.69;5049199;28;19940;-66
2022/06/12 11:34:29;;;;;;;;;;;;;;;-144.99;39.32;52162.75;5049048;28;20795;-67
2022/06/12 11:37:04;;;;;;;;;;;;;;;-144.99;39.56;52130.13;5049489;28;20070;-66
2022/06/12 11:39:39;;;;;;;;;;;;;;;-144.99;40.32;52093.44;5049523;28;20027;-66
2022/06/12 11:42:16;;;;;;;;;;;;;;;-144.99;40.73;52130.13;5047697;28;20208;-63
2022/06/12 11:44:50;;;;;;;;;;;;;;;-144.99;40.94;52115.88;5052565;28;19928;-64
2022/06/12 11:47:23;;;;;;;;;;;;;;;-144.99;41.41;52154.59;5050459;28;19929;-63
2022/06/12 11:49:58;;;;;;;;;;;;;;;-144.99;41.53;52154.59;5052918;28;21907;-64
2022/06/12 11:52:33;;;;;;;;;;;;;;;-144.99;42.21;52117.91;5057096;28;19956;-67
2022/06/12 11:55:05;;;;;;;;;;;;;;;-144.99;42.55;52179.06;5065418;28;20011;-71
2022/06/12 11:57:39;;;;;;;;;;;;;;;-144.99;43.70;52193.31;5073801;28;20547;-70
2022/06/12 12:00:07;;;;;;;;;;;;;;;-144.99;44.04;52195.34;5059707;28;20732;-69
2022/06/12 12:02:40;;;;;;;;;;;;;;;-144.99;44.25;52170.91;5057200;28;19928;-70
2022/06/12 12:05:14;;;;;;;;;;;;;;;-144.99;44.68;52164.78;5055850;28;19936;-70
2022/06/12 12:07:48;;;;;;;;;;;;;;;-144.99;44.88;52134.22;5058617;28;20385;-70
2022/06/12 12:10:23;;;;;;;;;;;;;;;-144.99;44.33;52146.44;5058290;28;19937;-69
2022/06/12 12:12:54;;;;;;;;;;;;;;;-144.99;43.64;52134.22;5055414;28;19955;-70
2022/06/12 12:15:23;;;;;;;;;;;;;;;-144.99;43.51;52158.66;5061329;28;19959;-70
2022/06/12 12:17:51;;;;;;;;;;;;;;;-144.99;43.22;52064.91;5056369;28;19932;-69
2022/06/12 12:20:24;;;;;;;30.43;28.63;;;;;;;-144.99;43.09;52101.59;5054161;28;24640;-69
2022/06/12 12:22:53;;;;;;;;;;;;;;;-144.99;42.31;52121.97;5054210;28;20208;-69
2022/06/12 12:25:23;;;;;;;;;;;;;;;-144.99;41.75;52117.91;5058639;28;19960;-69
2022/06/12 12:27:53;;;;;;;;;;;;;;;-144.99;40.41;52093.44;5053293;28;20541;-69
2022/06/12 12:30:21;;;;;;;;;;;;;;;-144.99;39.57;52093.44;5053499;28;20752;-69
2022/06/12 12:32:49;;;;;;;;;;;;;;;-144.99;40.23;52105.69;5053641;28;24831;-69
2022/06/12 12:41:11;;;;;;;;;;;;;;;-144.99;40.02;52077.16;5049974;28;20020;-70
2022/06/12 12:43:33;;;;;;;;;;;;;;;-144.99;43.38;52181.09;5053401;28;20045;-70
2022/06/12 12:46:01;;;;;;;;;;;;;;;-144.99;44.79;52174.97;5051114;28;20479;-70
2022/06/12 12:48:38;;;;;;;;;;;;;;;-144.99;45.13;52174.97;5052512;28;19940;-70
2022/06/12 12:51:05;;;;;;;;;;;;;;;-144.99;45.87;52146.44;5056322;28;20035;-70
2022/06/12 12:53:34;;;;;;;56.97;51.45;;;;;;;-144.99;46.35;52205.53;5056218;28;24573;-70
2022/06/12 12:56:03;;;;;;;;;;;;;;;-144.99;46.93;52136.25;5050802;28;20322;-70
2022/06/12 12:58:30;;;;;;;;;;;;;;;-144.99;47.26;52162.75;5053514;28;20153;-70